Time;durP1;ratioP1;P1;durP2;ratioP2;P2;SDS_P1;SDS_P2;PMS_P1;PMS_P2;Temp;Humidity;BMP_temperature;BMP_pressure;BME280_temperature;BME280_humidity;BME280_pressure;Samples;Min_cycle;Max_cycle;Signal;HPM_P1;HPM_P2
2023/01/30 00:00:16;;;;;;;55.57;28.03;;;;;;;;;;5021190;28;20222;-65
2023/01/30 00:02:41;;;;;;;56.97;29.13;;;;;;;;;;5017141;28;20630;-65
2023/01/30 00:05:07;;;;;;;59.23;29.47;;;;;;;;;;5016861;28;20219;-65
2023/01/30 00:07:32;;;;;;;59.33;28.40;;;;;;;;;;5030205;28;20280;-65
2023/01/30 00:09:58;;;;;;;57.57;29.93;;;;;;;;;;5029662;28;20194;-65
2023/01/30 00:12:23;;;;;;;54.73;29.27;;;;;;;;;;5030792;28;20672;-65
2023/01/30 00:14:48;;;;;;;55.13;29.37;;;;;;;;;;5023964;28;20190;-65
2023/01/30 00:17:14;;;;;;;56.50;29.13;;;;;;;;;;5030015;28;20218;-65
2023/01/30 00:19:39;;;;;;;58.83;29.30;;;;;;;;;;5038686;28;20186;-66
2023/01/30 00:22:05;;;;;;;58.70;29.30;;;;;;;;;;5044278;28;20865;-66
2023/01/30 00:24:30;;;;;;;56.80;29.70;;;;;;;;;;5040670;28;20265;-66
2023/01/30 00:26:55;;;;;;;57.23;30.67;;;;;;;;;;5040697;28;20602;-66
2023/01/30 00:29:21;;;;;;;57.77;29.97;;;;;;;;;;5037838;28;20233;-66
2023/01/30 00:31:46;;;;;;;58.10;30.80;;;;;;;;;;5024030;28;20189;-66
2023/01/30 00:34:11;;;;;;;59.60;30.67;;;;;;;;;;5030243;28;20202;-66
2023/01/30 00:36:37;;;;;;;59.50;30.47;;;;;;;;;;5029175;28;20426;-66
2023/01/30 00:39:02;;;;;;;57.40;30.70;;;;;;;;;;5041013;28;20182;-66
2023/01/30 00:47:04;;;;;;;56.93;30.80;;;;;;;;;;5030398;28;20190;-66
2023/01/30 00:47:07;;;;;;;59.73;29.77;;;;;;;;;;5026075;28;20508;-66
2023/01/30 00:49:33;;;;;;;63.43;32.77;;;;;;;;;;5017257;28;20264;-66
2023/01/30 00:51:58;;;;;;;58.47;29.33;;;;;;;;;;5029558;28;20713;-66
2023/01/30 00:54:23;;;;;;;60.40;29.93;;;;;;;;;;5033070;28;20479;-66
2023/01/30 00:56:49;;;;;;;57.40;31.07;;;;;;;;;;5021205;28;20210;-65
2023/01/30 00:59:14;;;;;;;54.10;30.03;;;;;;;;;;5025970;28;20626;-66
2023/01/30 01:01:40;;;;;;;60.67;31.37;;;;;;;;;;5019687;28;20263;-65
2023/01/30 01:04:07;;;;;;;55.70;29.57;;;;;;;;;;5029162;28;20201;-65
2023/01/30 01:06:33;;;;;;;64.90;30.43;;;;;;;;;;5029721;28;20551;-66
2023/01/30 01:08:58;;;;;;;55.07;30.27;;;;;;;;;;5038473;28;20182;-65
2023/01/30 01:11:23;;;;;;;52.93;31.33;;;;;;;;;;5024778;28;20192;-65
2023/01/30 01:13:51;;;;;;;56.47;31.13;;;;;;;;;;5040477;28;20189;-65
2023/01/30 01:16:16;;;;;;;63.63;31.43;;;;;;;;;;5027164;28;20237;-65
2023/01/30 01:18:42;;;;;;;55.53;31.20;;;;;;;;;;5029860;28;20190;-65
2023/01/30 01:21:07;;;;;;;55.57;31.13;;;;;;;;;;5027037;28;20198;-66
2023/01/30 01:23:32;;;;;;;67.33;31.53;;;;;;;;;;5041485;28;20178;-65
2023/01/30 01:26:00;;;;;;;56.70;31.43;;;;;;;;;;5029037;28;20606;-65
2023/01/30 01:28:26;;;;;;;60.07;32.53;;;;;;;;;;5032441;28;20189;-65
2023/01/30 01:30:51;;;;;;;57.10;31.47;;;;;;;;;;5036105;28;20303;-65
2023/01/30 01:33:17;;;;;;;59.47;32.47;;;;;;;;;;5047703;28;20198;-65
2023/01/30 01:35:42;;;;;;;56.67;30.83;;;;;;;;;;5038793;28;20209;-65
2023/01/30 01:38:07;;;;;;;57.00;32.07;;;;;;;;;;5037233;28;20673;-65
2023/01/30 01:43:20;;;;;;;56.70;32.22;;;;;;;;;;5018121;28;20543;-65
2023/01/30 01:45:48;;;;;;;63.77;32.53;;;;;;;;;;5025123;28;20214;-65
2023/01/30 01:48:21;;;;;;;67.17;34.37;;;;;;;;;;5028971;28;20198;-65
2023/01/30 01:50:53;;;;;;;57.93;32.23;;;;;;;;;;5026836;28;20204;-65
2023/01/30 01:53:23;;;;;;;59.10;32.43;;;;;;;;;;5031531;28;20190;-65
2023/01/30 01:55:53;;;;;;;61.43;33.43;;;;;;;;;;5028478;28;21204;-65
2023/01/30 01:58:25;;;;;;;58.50;32.43;;;;;;;;;;5026131;28;20194;-66
2023/01/30 02:00:51;;;;;;;61.47;32.47;;;;;;;;;;5022833;28;20278;-65
2023/01/30 02:03:22;;;;;;;60.53;33.23;;;;;;;;;;5021026;28;20209;-65
2023/01/30 02:05:51;;;;;;;61.63;33.30;;;;;;;;;;5028303;28;20186;-66
2023/01/30 02:08:24;;;;;;;61.20;32.27;;;;;;;;;;5027263;28;20209;-66
2023/01/30 02:11:06;;;;;;;59.57;32.07;;;;;;;;;;5021778;28;20198;-65
2023/01/30 02:13:32;;;;;;;60.50;32.53;;;;;;;;;;5013016;28;20191;-66
2023/01/30 02:15:59;;;;;;;57.67;32.33;;;;;;;;;;5017412;28;20218;-65
2023/01/30 02:18:25;;;;;;;63.43;32.00;;;;;;;;;;5021806;28;20227;-65
2023/01/30 02:21:23;;;;;;;64.83;32.83;;;;;;;;;;5022083;28;20639;-68
2023/01/30 02:24:28;;;;;;;64.07;33.30;;;;;;;;;;5027069;28;20672;-67
2023/01/30 02:27:11;;;;;;;59.43;32.20;;;;;;;;;;5027852;28;20186;-68
2023/01/30 02:30:22;;;;;;;56.13;32.37;;;;;;;;;;5009576;28;20225;-68
2023/01/30 02:33:06;;;;;;;64.03;32.17;;;;;;;;;;5038533;28;20190;-71
2023/01/30 02:35:54;;;;;;;57.87;32.23;;;;;;;;;;5037011;28;20194;-68
2023/01/30 02:38:47;;;;;;;56.07;30.87;;;;;;;;;;5034567;28;20190;-70
2023/01/30 02:41:19;;;;;;;58.20;31.13;;;;;;;;;;5020967;28;20190;-68
2023/01/30 02:43:58;;;;;;;57.73;32.27;;;;;;;;;;5025523;28;20190;-68
2023/01/30 02:46:48;;;;;;;59.80;32.23;;;;;;;;;;5032124;28;20197;-72
2023/01/30 02:49:22;;;;;;;64.00;33.17;;;;;;;;;;5024861;28;20213;-69
2023/01/30 02:51:49;;;;;;;55.97;31.97;;;;;;;;;;5025695;28;20189;-69
2023/01/30 02:54:15;;;;;;;57.23;32.73;;;;;;;;;;5028170;28;20623;-69
2023/01/30 02:56:51;;;;;;;53.17;31.37;;;;;;;;;;5027220;28;20233;-69
2023/01/30 02:59:31;;;;;;;54.07;31.03;;;;;;;;;;5030802;28;20228;-69
2023/01/30 03:02:35;;;;;;;56.13;31.73;;;;;;;;;;5031662;28;20202;-70
2023/01/30 03:05:25;;;;;;;55.97;31.10;;;;;;;;;;5041552;28;20719;-70
2023/01/30 03:07:50;;;;;;;57.03;31.00;;;;;;;;;;5021113;28;20559;-69
2023/01/30 03:10:41;;;;;;;59.23;31.67;;;;;;;;;;5032663;28;20205;-68
2023/01/30 03:13:21;;;;;;;51.83;28.27;;;;;;;;;;5021882;28;20208;-70
2023/01/30 03:16:04;;;;;;;53.97;30.00;;;;;;;;;;5022640;28;20245;-70
2023/01/30 03:18:29;;;;;;;50.13;28.60;;;;;;;;;;5035745;28;20186;-72
2023/01/30 03:20:55;;;;;;;49.70;29.40;;;;;;;;;;5029299;28;20695;-71
2023/01/30 03:23:20;;;;;;;49.83;28.33;;;;;;;;;;5037199;28;20279;-71
2023/01/30 03:25:47;;;;;;;50.13;28.47;;;;;;;;;;5042687;28;20182;-72
2023/01/30 03:28:17;;;;;;;45.43;27.47;;;;;;;;;;5019815;28;20698;-71
2023/01/30 03:30:42;;;;;;;43.90;27.37;;;;;;;;;;5032032;28;20229;-71
2023/01/30 03:33:09;;;;;;;46.07;26.47;;;;;;;;;;5033596;28;20838;-71
2023/01/30 03:35:34;;;;;;;44.93;25.83;;;;;;;;;;5036259;28;20638;-70
2023/01/30 03:38:00;;;;;;;40.80;24.10;;;;;;;;;;5040589;28;20178;-71
2023/01/30 03:40:25;;;;;;;39.57;24.30;;;;;;;;;;5031261;28;20662;-71
2023/01/30 03:42:51;;;;;;;39.77;23.27;;;;;;;;;;5004909;28;20662;-69
2023/01/30 03:45:17;;;;;;;41.23;23.77;;;;;;;;;;5019872;28;20205;-71
2023/01/30 03:47:42;;;;;;;38.50;23.63;;;;;;;;;;5032501;28;20181;-70
2023/01/30 03:50:08;;;;;;;35.57;21.13;;;;;;;;;;5015721;28;20255;-71
2023/01/30 03:52:34;;;;;;;30.87;19.80;;;;;;;;;;5030799;28;20195;-71
2023/01/30 03:55:00;;;;;;;27.17;15.77;;;;;;;;;;5033106;28;20213;-70
2023/01/30 03:57:26;;;;;;;20.47;13.10;;;;;;;;;;5035565;28;20206;-71
2023/01/30 03:59:51;;;;;;;23.73;14.53;;;;;;;;;;5022947;28;20277;-71
2023/01/30 04:02:21;;;;;;;24.07;14.00;;;;;;;;;;5032981;28;20190;-71
2023/01/30 04:04:48;;;;;;;20.03;13.37;;;;;;;;;;5033226;28;20665;-71
2023/01/30 04:07:15;;;;;;;21.50;13.83;;;;;;;;;;5032118;28;20548;-71
2023/01/30 04:09:40;;;;;;;19.13;12.67;;;;;;;;;;5020524;28;20183;-69
2023/01/30 04:12:06;;;;;;;22.87;11.93;;;;;;;;;;5018440;28;20937;-70
2023/01/30 04:14:31;;;;;;;15.30;9.90;;;;;;;;;;5031054;28;20570;-69
2023/01/30 04:16:56;;;;;;;20.23;10.90;;;;;;;;;;5024948;28;20218;-70
2023/01/30 04:19:22;;;;;;;15.23;9.73;;;;;;;;;;5029359;28;20209;-70
2023/01/30 04:21:47;;;;;;;16.80;9.83;;;;;;;;;;5028340;28;20194;-69
2023/01/30 04:24:13;;;;;;;16.57;8.53;;;;;;;;;;5033435;28;20552;-69
2023/01/30 04:26:38;;;;;;;13.47;8.47;;;;;;;;;;5027820;28;20205;-68
2023/01/30 04:29:03;;;;;;;17.70;7.77;;;;;;;;;;5043105;28;20256;-68
2023/01/30 04:31:29;;;;;;;21.47;8.53;;;;;;;;;;5028987;28;20225;-69
2023/01/30 04:33:54;;;;;;;18.43;7.77;;;;;;;;;;5025283;28;20183;-68
2023/01/30 04:36:19;;;;;;;16.27;7.67;;;;;;;;;;5027708;28;20689;-68
2023/01/30 04:38:45;;;;;;;17.93;7.23;;;;;;;;;;5028823;28;20282;-68
2023/01/30 04:41:10;;;;;;;21.27;7.83;;;;;;;;;;5022944;28;20205;-69
2023/01/30 04:43:35;;;;;;;23.60;8.23;;;;;;;;;;5029653;28;20600;-69
2023/01/30 04:46:01;;;;;;;18.60;6.67;;;;;;;;;;5028928;28;20197;-68
2023/01/30 04:48:26;;;;;;;19.60;6.30;;;;;;;;;;5031554;28;20288;-67
2023/01/30 04:50:54;;;;;;;16.13;5.20;;;;;;;;;;5021669;28;20199;-67
2023/01/30 04:53:20;;;;;;;23.87;6.03;;;;;;;;;;5037349;28;20237;-67
2023/01/30 04:55:46;;;;;;;16.50;5.20;;;;;;;;;;5029459;28;20657;-67
2023/01/30 04:58:11;;;;;;;22.37;5.60;;;;;;;;;;5031822;28;20272;-67
2023/01/30 05:00:37;;;;;;;21.23;5.63;;;;;;;;;;5031050;28;20624;-68
2023/01/30 05:03:03;;;;;;;18.20;5.03;;;;;;;;;;5033336;28;20194;-67
2023/01/30 05:05:28;;;;;;;21.77;5.00;;;;;;;;;;5022757;28;20187;-67
2023/01/30 05:07:54;;;;;;;23.40;5.37;;;;;;;;;;5037274;28;20208;-67
2023/01/30 05:10:19;;;;;;;23.23;5.87;;;;;;;;;;5029479;28;20197;-67
2023/01/30 05:12:45;;;;;;;21.87;4.80;;;;;;;;;;5029307;28;20460;-67
2023/01/30 05:15:11;;;;;;;15.20;4.90;;;;;;;;;;5023921;28;20230;-67
2023/01/30 05:17:37;;;;;;;16.07;4.77;;;;;;;;;;5029153;28;20759;-67
2023/01/30 05:20:03;;;;;;;15.73;4.47;;;;;;;;;;5028351;28;20194;-67
2023/01/30 05:22:29;;;;;;;15.70;4.57;;;;;;;;;;5026207;28;20521;-67
2023/01/30 05:24:54;;;;;;;15.73;4.13;;;;;;;;;;5036712;28;20205;-67
2023/01/30 05:27:20;;;;;;;18.93;4.73;;;;;;;;;;5024774;28;20190;-67
2023/01/30 05:29:45;;;;;;;18.30;3.88;;;;;;;;;;5020001;28;20245;-68
2023/01/30 05:32:13;;;;;;;15.40;3.30;;;;;;;;;;5024494;28;20356;-67
2023/01/30 05:34:38;;;;;;;17.63;3.70;;;;;;;;;;5031658;28;20199;-67
2023/01/30 05:37:04;;;;;;;15.37;4.10;;;;;;;;;;5035281;28;20358;-68
2023/01/30 05:39:29;;;;;;;16.60;2.63;;;;;;;;;;5041482;28;20233;-67
2023/01/30 05:41:54;;;;;;;15.07;2.70;;;;;;;;;;5041797;28;20395;-67
2023/01/30 05:44:20;;;;;;;10.83;3.20;;;;;;;;;;5037278;28;20214;-67
2023/01/30 05:46:45;;;;;;;13.67;2.30;;;;;;;;;;5038214;28;20229;-67
2023/01/30 05:49:10;;;;;;;11.97;2.00;;;;;;;;;;5038420;28;20824;-67
2023/01/30 05:51:36;;;;;;;16.10;2.63;;;;;;;;;;5024137;28;20595;-67
2023/01/30 05:54:02;;;;;;;13.93;3.00;;;;;;;;;;5035602;28;20287;-67
2023/01/30 05:56:29;;;;;;;12.88;2.70;;;;;;;;;;5029169;28;20201;-66
2023/01/30 05:58:55;;;;;;;10.83;2.17;;;;;;;;;;5025396;28;20222;-67
2023/01/30 06:01:21;;;;;;;16.07;3.10;;;;;;;;;;5026551;28;20584;-66
2023/01/30 06:03:47;;;;;;;21.33;2.90;;;;;;;;;;5036942;28;20649;-66
2023/01/30 06:06:13;;;;;;;14.68;2.20;;;;;;;;;;5038582;28;20212;-67
2023/01/30 06:08:39;;;;;;;18.27;3.57;;;;;;;;;;5033919;28;20190;-68
2023/01/30 06:11:07;;;;;;;15.73;2.77;;;;;;;;;;5037533;28;20194;-67
2023/01/30 06:13:33;;;;;;;13.73;3.53;;;;;;;;;;5032389;28;20236;-68
2023/01/30 06:15:59;;;;;;;18.80;3.20;;;;;;;;;;5040496;28;20588;-68
2023/01/30 06:18:25;;;;;;;14.63;2.57;;;;;;;;;;5036310;28;20203;-68
2023/01/30 06:20:52;;;;;;;25.97;3.50;;;;;;;;;;5033900;28;20201;-67
2023/01/30 06:23:18;;;;;;;18.40;2.93;;;;;;;;;;5028124;28;20716;-67
2023/01/30 06:25:45;;;;;;;14.73;3.10;;;;;;;;;;5036911;28;20533;-67
2023/01/30 06:28:10;;;;;;;14.07;3.47;;;;;;;;;;5029465;28;20310;-67
2023/01/30 06:30:36;;;;;;;25.83;3.83;;;;;;;;;;5036414;28;20265;-66
2023/01/30 06:33:01;;;;;;;18.73;3.40;;;;;;;;;;5037077;28;20227;-67
2023/01/30 06:35:27;;;;;;;18.70;2.90;;;;;;;;;;5031336;28;20969;-67
2023/01/30 06:37:52;;;;;;;14.70;2.43;;;;;;;;;;5026216;28;20221;-67
2023/01/30 06:40:17;;;;;;;18.77;3.00;;;;;;;;;;5024190;28;20190;-67
2023/01/30 06:42:45;;;;;;;16.23;2.93;;;;;;;;;;5031793;28;20197;-69
2023/01/30 06:45:11;;;;;;;16.47;2.53;;;;;;;;;;5024461;28;20263;-69
2023/01/30 06:47:44;;;;;;;19.60;3.57;;;;;;;;;;5022588;28;20261;-67
2023/01/30 06:50:10;;;;;;;25.93;3.60;;;;;;;;;;5025792;28;20193;-67
2023/01/30 06:52:40;;;;;;;18.98;2.83;;;;;;;;;;5025578;28;20220;-67
2023/01/30 06:55:06;;;;;;;20.93;2.43;;;;;;;;;;4984970;28;20273;-68
2023/01/30 06:57:31;;;;;;;25.70;3.20;;;;;;;;;;5036230;28;20263;-68
2023/01/30 06:59:56;;;;;;;22.83;3.70;;;;;;;;;;5032568;28;20222;-69
2023/01/30 07:02:22;;;;;;;29.43;3.37;;;;;;;;;;5022169;28;20192;-69
2023/01/30 07:04:47;;;;;;;30.73;3.87;;;;;;;;;;5025347;28;20610;-68
2023/01/30 07:07:13;;;;;;;24.07;3.57;;;;;;;;;;5017475;28;20186;-68
2023/01/30 07:09:38;;;;;;;30.93;3.57;;;;;;;;;;5016241;28;20585;-68
2023/01/30 07:12:04;;;;;;;26.67;3.70;;;;;;;;;;5020746;28;20189;-68
2023/01/30 07:14:29;;;;;;;24.17;3.50;;;;;;;;;;5023117;28;20197;-68
2023/01/30 07:16:54;;;;;;;19.77;2.87;;;;;;;;;;5031779;28;20681;-68
2023/01/30 07:19:20;;;;;;;26.33;3.30;;;;;;;;;;5027336;28;20194;-68
2023/01/30 07:21:45;;;;;;;26.13;2.97;;;;;;;;;;5040480;28;20189;-68
2023/01/30 07:24:10;;;;;;;20.40;2.80;;;;;;;;;;5024902;28;20222;-69
2023/01/30 07:26:36;;;;;;;20.63;2.87;;;;;;;;;;5035840;28;20610;-68
2023/01/30 07:29:01;;;;;;;19.10;2.67;;;;;;;;;;5037158;28;20237;-68
2023/01/30 07:31:26;;;;;;;21.10;2.57;;;;;;;;;;5029020;28;20751;-68
2023/01/30 07:33:52;;;;;;;22.13;3.77;;;;;;;;;;5023396;28;20209;-68
2023/01/30 07:36:17;;;;;;;20.90;3.00;;;;;;;;;;5022833;28;20218;-67
2023/01/30 07:38:42;;;;;;;17.40;2.80;;;;;;;;;;5021916;28;20216;-68
2023/01/30 07:41:08;;;;;;;18.87;2.80;;;;;;;;;;5019333;28;20201;-68
2023/01/30 07:43:33;;;;;;;17.53;2.60;;;;;;;;;;5038451;28;20225;-68
2023/01/30 07:45:59;;;;;;;18.50;3.67;;;;;;;;;;5047966;28;20609;-68
2023/01/30 07:48:25;;;;;;;17.43;2.57;;;;;;;;;;5040227;28;20475;-68
2023/01/30 07:50:55;;;;;;;18.40;2.73;;;;;;;;;;5029922;28;20372;-68
2023/01/30 07:53:21;;;;;;;19.23;3.20;;;;;;;;;;5031160;28;20221;-68
2023/01/30 07:55:46;;;;;;;21.63;2.90;;;;;;;;;;5030597;28;20201;-68
2023/01/30 07:58:14;;;;;;;20.47;2.97;;;;;;;;;;5040735;28;20185;-68
2023/01/30 08:00:40;;;;;;;17.93;3.03;;;;;;;;;;5043688;28;20276;-68
2023/01/30 08:03:05;;;;;;;21.97;3.57;;;;;;;;;;5038371;28;20224;-68
2023/01/30 08:05:31;;;;;;;29.17;3.83;;;;;;;;;;5039990;28;20193;-68
2023/01/30 08:07:56;;;;;;;25.70;3.60;;;;;;;;;;5037710;28;20189;-69
2023/01/30 08:10:22;;;;;;;23.03;3.13;;;;;;;;;;5032584;28;20219;-68
2023/01/30 08:12:50;;;;;;;24.03;2.60;;;;;;;;;;5045036;28;20193;-68
2023/01/30 08:15:16;;;;;;;16.77;2.93;;;;;;;;;;5041390;28;20624;-69
2023/01/30 08:17:41;;;;;;;23.27;2.67;;;;;;;;;;5046709;28;20709;-68
2023/01/30 08:20:07;;;;;;;26.40;3.50;;;;;;;;;;5039784;28;20709;-68
2023/01/30 08:22:33;;;;;;;21.40;2.90;;;;;;;;;;5026639;28;20234;-68
2023/01/30 08:24:58;;;;;;;23.20;3.70;;;;;;;;;;5026691;28;20216;-68
2023/01/30 08:27:24;;;;;;;23.97;3.73;;;;;;;;;;5030356;28;20178;-68
2023/01/30 08:29:49;;;;;;;20.53;3.73;;;;;;;;;;5028990;28;20230;-68
2023/01/30 08:32:15;;;;;;;25.33;5.17;;;;;;;;;;5037560;28;20193;-67
2023/01/30 08:34:40;;;;;;;27.17;3.57;;;;;;;;;;5037876;28;20197;-67
2023/01/30 08:37:05;;;;;;;27.60;4.20;;;;;;;;;;5042307;28;20609;-67
2023/01/30 08:39:31;;;;;;;25.33;3.13;;;;;;;;;;5031624;28;20198;-67
2023/01/30 08:41:56;;;;;;;30.97;4.10;;;;;;;;;;5026127;28;20602;-67
2023/01/30 08:44:21;;;;;;;28.63;4.17;;;;;;;;;;5032707;28;20201;-67
2023/01/30 08:46:47;;;;;;;27.63;3.43;;;;;;;;;;5037454;28;20255;-67
2023/01/30 08:49:12;;;;;;;27.33;4.37;;;;;;;;;;5037064;28;20202;-67
2023/01/30 08:51:38;;;;;;;29.10;3.97;;;;;;;;;;5042718;28;20258;-69
2023/01/30 08:54:06;;;;;;;22.30;3.40;;;;;;;;;;5039637;28;20197;-68
2023/01/30 08:56:31;;;;;;;23.73;3.43;;;;;;;;;;5028073;28;20549;-68
2023/01/30 08:58:57;;;;;;;30.63;4.13;;;;;;;;;;5046611;28;20185;-68
2023/01/30 09:01:22;;;;;;;23.97;3.50;;;;;;;;;;5037970;28;20567;-68
2023/01/30 09:03:47;;;;;;;25.13;3.90;;;;;;;;;;5040904;28;20272;-66
2023/01/30 09:06:13;;;;;;;26.40;3.37;;;;;;;;;;5044748;28;20186;-68
2023/01/30 09:08:38;;;;;;;25.20;3.53;;;;;;;;;;5041053;28;20274;-68
2023/01/30 09:11:05;;;;;;;23.73;3.90;;;;;;;;;;5047258;28;20197;-66
2023/01/30 09:13:31;;;;;;;25.13;3.50;;;;;;;;;;5046923;28;20564;-65
2023/01/30 09:15:57;;;;;;;25.37;4.13;;;;;;;;;;5044086;28;20608;-66
2023/01/30 09:18:23;;;;;;;22.17;3.50;;;;;;;;;;5041050;28;20204;-66
2023/01/30 09:20:48;;;;;;;21.77;3.07;;;;;;;;;;5044863;28;20628;-66
2023/01/30 09:23:14;;;;;;;19.90;3.33;;;;;;;;;;5038167;28;20312;-66
2023/01/30 09:25:40;;;;;;;24.27;3.83;;;;;;;;;;5042749;28;20200;-67
2023/01/30 09:28:07;;;;;;;26.97;3.57;;;;;;;;;;5047086;28;20185;-67
2023/01/30 09:30:33;;;;;;;24.80;3.63;;;;;;;;;;5045418;28;20230;-66
2023/01/30 09:32:58;;;;;;;26.00;3.03;;;;;;;;;;5049085;28;20753;-67
2023/01/30 09:35:23;;;;;;;22.60;3.23;;;;;;;;;;5043328;28;20272;-66
2023/01/30 09:37:51;;;;;;;27.30;3.97;;;;;;;;;;5040928;28;20209;-67
2023/01/30 09:40:20;;;;;;;19.90;3.00;;;;;;;;;;5043422;28;20246;-66
2023/01/30 09:43:09;;;;;;;22.27;3.30;;;;;;;;;;5045672;28;20438;-66
2023/01/30 09:45:50;;;;;;;21.63;3.05;;;;;;;;;;5035320;28;20193;-66
2023/01/30 09:49:02;;;;;;;14.85;2.95;;;;;;;;;;5040333;28;20194;-66
2023/01/30 09:51:39;;;;;;;21.93;3.47;;;;;;;;;;5043597;28;20271;-66
2023/01/30 09:54:43;;;;;;;24.58;3.13;;;;;;;;;;5033190;28;20201;-66
2023/01/30 09:57:10;;;;;;;31.27;4.13;;;;;;;;;;5038948;28;20225;-66
2023/01/30 10:00:18;;;;;;;24.40;3.83;;;;;;;;;;5042630;28;20258;-66
2023/01/30 10:03:10;;;;;;;20.20;3.23;;;;;;;;;;5021563;28;20201;-66
2023/01/30 10:05:54;;;;;;;21.67;3.77;;;;;;;;;;5037572;28;20193;-66
2023/01/30 10:08:47;;;;;;;21.93;3.10;;;;;;;;;;5045989;28;20181;-66
2023/01/30 10:11:23;;;;;;;22.13;3.57;;;;;;;;;;5047219;28;20216;-67
2023/01/30 10:14:17;;;;;;;26.30;3.60;;;;;;;;;;5044318;28;20197;-66
2023/01/30 10:16:49;;;;;;;16.25;2.80;;;;;;;;;;5039744;28;20201;-67
2023/01/30 10:19:29;;;;;;;15.38;2.97;;;;;;;;;;5047537;28;20607;-66
2023/01/30 10:22:05;;;;;;;20.50;3.20;;;;;;;;;;5033407;28;20193;-67
2023/01/30 10:24:53;;;;;;;12.88;2.50;;;;;;;;;;5045173;28;20184;-66
2023/01/30 10:27:21;;;;;;;16.40;3.70;;;;;;;;;;5043249;28;20625;-66
2023/01/30 10:29:51;;;;;;;15.75;2.38;;;;;;;;;;5044039;28;20367;-66
2023/01/30 10:32:30;;;;;;;26.02;3.55;;;;;;;;;;5044849;28;20224;-66
2023/01/30 10:35:03;;;;;;;13.65;2.90;;;;;;;;;;5037166;28;20193;-67
2023/01/30 10:37:34;;;;;;;16.77;3.17;;;;;;;;;;5041895;28;20276;-67
2023/01/30 10:40:34;;;;;;;21.23;3.22;;;;;;;;;;5045015;28;20190;-68
2023/01/30 10:43:28;;;;;;;23.75;3.55;;;;;;;;;;5047323;28;20189;-67
2023/01/30 10:46:23;;;;;;;20.83;3.33;;;;;;;;;;5037546;28;20193;-67
2023/01/30 10:48:51;;;;;;;25.27;3.50;;;;;;;;;;5042791;28;20193;-67
2023/01/30 10:52:04;;;;;;;16.60;3.50;;;;;;;;;;5046032;28;20256;-67
2023/01/30 10:54:39;;;;;;;16.65;3.17;;;;;;;;;;5034822;28;20205;-68
2023/01/30 10:57:24;;;;;;;23.45;2.58;;;;;;;;;;5044884;28;20736;-66
2023/01/30 11:00:18;;;;;;;19.90;2.92;;;;;;;;;;5039087;28;20359;-67
2023/01/30 11:03:14;;;;;;;21.85;3.42;;;;;;;;;;5029886;28;20583;-67
2023/01/30 11:05:51;;;;;;;23.00;3.10;;;;;;;;;;5035927;28;20178;-66
2023/01/30 11:08:25;;;;;;;25.65;3.08;;;;;;;;;;5032671;28;20182;-68
2023/01/30 11:10:52;;;;;;;19.65;3.00;;;;;;;;;;5032420;28;20307;-67
2023/01/30 11:13:19;;;;;;;15.93;3.00;;;;;;;;;;5041779;28;20208;-67
2023/01/30 11:15:48;;;;;;;24.45;3.72;;;;;;;;;;5022585;28;20183;-67
2023/01/30 11:18:15;;;;;;;26.30;3.40;;;;;;;;;;5026997;28;20194;-67
2023/01/30 11:20:44;;;;;;;16.17;2.85;;;;;;;;;;5020132;28;20509;-67
2023/01/30 11:23:26;;;;;;;26.10;4.03;;;;;;;;;;5050867;28;20177;-67
2023/01/30 11:25:56;;;;;;;18.80;3.53;;;;;;;;;;5046410;28;20189;-67
2023/01/30 11:28:24;;;;;;;28.15;3.22;;;;;;;;;;5049631;28;20616;-67
2023/01/30 11:30:57;;;;;;;20.20;3.05;;;;;;;;;;5046359;28;20229;-67
2023/01/30 11:33:31;;;;;;;18.52;2.90;;;;;;;;;;5048565;28;20186;-67
2023/01/30 11:36:06;;;;;;;19.50;3.00;;;;;;;;;;5043421;28;20193;-67
2023/01/30 11:38:38;;;;;;;25.63;4.07;;;;;;;;;;5041055;28;20184;-67
2023/01/30 11:41:17;;;;;;;24.25;3.80;;;;;;;;;;5048792;28;20300;-66
2023/01/30 11:43:42;;;;;;;21.75;3.00;;;;;;;;;;5048628;28;20609;-67
2023/01/30 11:46:11;;;;;;;25.23;4.63;;;;;;;;;;5042369;28;20182;-67
2023/01/30 11:48:48;;;;;;;30.70;4.22;;;;;;;;;;5050495;28;20177;-67
2023/01/30 11:51:15;;;;;;;18.95;3.08;;;;;;;;;;5037630;28;20190;-67
2023/01/30 11:53:45;;;;;;;17.50;3.15;;;;;;;;;;5048007;28;20955;-68
2023/01/30 11:56:22;;;;;;;24.58;3.55;;;;;;;;;;5042404;28;20209;-67
2023/01/30 11:58:57;;;;;;;23.23;3.08;;;;;;;;;;5045519;28;20208;-67
2023/01/30 12:01:27;;;;;;;17.13;3.10;;;;;;;;;;5041386;28;20240;-70
2023/01/30 12:03:54;;;;;;;18.75;3.92;;;;;;;;;;5037569;28;20178;-67
2023/01/30 12:06:35;;;;;;;26.05;3.45;;;;;;;;;;5030652;28;20522;-67
2023/01/30 12:09:01;;;;;;;15.02;3.00;;;;;;;;;;5031947;28;20236;-67
2023/01/30 12:11:35;;;;;;;25.38;4.22;;;;;;;;;;5036479;28;20193;-68
2023/01/30 12:14:41;;;;;;;14.98;3.10;;;;;;;;;;5028564;28;20189;-67
2023/01/30 12:17:21;;;;;;;15.23;3.55;;;;;;;;;;5026667;28;20198;-67
2023/01/30 12:20:12;;;;;;;25.40;3.65;;;;;;;;;;5024309;28;20182;-67
2023/01/30 12:22:44;;;;;;;13.60;2.65;;;;;;;;;;5030781;28;20255;-68
2023/01/30 12:25:17;;;;;;;24.20;3.80;;;;;;;;;;5035825;28;20198;-67
2023/01/30 12:27:55;;;;;;;23.27;3.50;;;;;;;;;;5031487;28;20214;-68
2023/01/30 12:30:33;;;;;;;22.83;3.50;;;;;;;;;;5032477;28;20240;-67
2023/01/30 12:33:02;;;;;;;22.17;4.15;;;;;;;;;;5034839;28;20202;-66
2023/01/30 12:35:46;;;;;;;24.23;3.70;;;;;;;;;;5028752;28;20431;-68
2023/01/30 12:38:28;;;;;;;32.70;4.83;;;;;;;;;;5039316;28;20217;-67
2023/01/30 12:41:07;;;;;;;29.60;3.83;;;;;;;;;;5045650;28;20638;-67
2023/01/30 12:43:38;;;;;;;26.60;4.03;;;;;;;;;;5033495;28;20463;-67
2023/01/30 12:46:30;;;;;;;18.23;2.70;;;;;;;;;;5025501;28;20324;-68
2023/01/30 12:49:24;;;;;;;26.10;3.67;;;;;;;;;;5018545;28;20521;-67
2023/01/30 12:52:03;;;;;;;29.83;4.07;;;;;;;;;;5015426;28;20190;-67
2023/01/30 12:54:43;;;;;;;19.73;3.80;;;;;;;;;;5029217;28;20229;-67
2023/01/30 12:57:37;;;;;;;25.63;3.63;;;;;;;;;;5033548;28;20217;-67
2023/01/30 13:00:23;;;;;;;23.40;4.07;;;;;;;;;;5043500;28;20230;-68
2023/01/30 13:03:07;;;;;;;21.40;3.83;;;;;;;;;;5039624;28;20408;-67
2023/01/30 13:05:57;;;;;;;25.20;3.87;;;;;;;;;;5047819;28;20189;-70
2023/01/30 13:08:47;;;;;;;21.10;3.17;;;;;;;;;;5042342;28;20857;-70
2023/01/30 13:11:21;;;;;;;14.33;2.13;;;;;;;;;;5034065;28;20198;-76
2023/01/30 13:13:53;;;;;;;16.33;2.50;;;;;;;;;;5043961;28;20188;-73
2023/01/30 13:16:25;;;;;;;18.43;3.37;;;;;;;;;;5045436;28;20647;-71
2023/01/30 13:18:58;;;;;;;23.77;3.10;;;;;;;;;;5046124;28;20189;-70
2023/01/30 13:21:31;;;;;;;23.43;3.13;;;;;;;;;;5033245;28;20224;-69
2023/01/30 13:24:02;;;;;;;19.10;2.67;;;;;;;;;;5041577;28;20486;-71
2023/01/30 13:26:40;;;;;;;20.73;2.57;;;;;;;;;;5024136;28;20637;-70
2023/01/30 13:29:15;;;;;;;15.80;2.13;;;;;;;;;;5042798;28;20655;-69
2023/01/30 13:31:50;;;;;;;26.90;3.57;;;;;;;;;;5036336;28;20207;-70
2023/01/30 13:34:27;;;;;;;20.17;3.03;;;;;;;;;;5044014;28;20193;-68
2023/01/30 13:37:03;;;;;;;20.60;4.27;;;;;;;;;;5043394;28;20216;-69
2023/01/30 13:39:42;;;;;;;20.20;2.97;;;;;;;;;;5036495;28;20182;-70
2023/01/30 13:42:31;;;;;;;20.03;3.50;;;;;;;;;;5036021;28;20177;-69
2023/01/30 13:44:58;;;;;;;17.23;2.87;;;;;;;;;;5037418;28;20213;-70
2023/01/30 13:47:39;;;;;;;27.37;3.40;;;;;;;;;;5040843;28;20235;-69
2023/01/30 13:50:34;;;;;;;24.43;4.73;;;;;;;;;;5044560;28;20189;-70
2023/01/30 13:53:24;;;;;;;31.73;3.77;;;;;;;;;;5044864;28;20182;-69
2023/01/30 13:56:25;;;;;;;29.07;3.57;;;;;;;;;;5039675;28;20205;-70
2023/01/30 13:59:18;;;;;;;30.03;3.50;;;;;;;;;;5026437;28;20213;-69
2023/01/30 14:02:09;;;;;;;22.40;3.67;;;;;;;;;;5035523;28;20454;-70
2023/01/30 14:04:38;;;;;;;30.17;3.10;;;;;;;;;;5043946;28;20505;-71
2023/01/30 14:07:15;;;;;;;23.07;3.53;;;;;;;;;;5044212;28;20220;-70
2023/01/30 14:09:47;;;;;;;25.33;4.10;;;;;;;;;;5047013;28;20651;-69
2023/01/30 14:12:23;;;;;;;27.20;5.20;;;;;;;;;;5040570;28;20199;-69
2023/01/30 14:15:01;;;;;;;18.97;3.67;;;;;;;;;;5043929;28;20890;-69
2023/01/30 14:17:27;;;;;;;32.07;4.03;;;;;;;;;;5041112;28;20664;-69
2023/01/30 14:20:15;;;;;;;24.17;3.40;;;;;;;;;;5042966;28;20460;-68
2023/01/30 14:22:54;;;;;;;30.47;5.03;;;;;;;;;;5009825;28;20194;-68
2023/01/30 14:25:29;;;;;;;28.70;4.37;;;;;;;;;;5024401;28;20201;-69
2023/01/30 14:28:03;;;;;;;27.90;4.07;;;;;;;;;;5028072;28;20781;-68
2023/01/30 14:30:35;;;;;;;22.23;3.80;;;;;;;;;;5038227;28;20435;-69
2023/01/30 14:33:03;;;;;;;31.13;5.10;;;;;;;;;;5017865;28;20301;-70
2023/01/30 14:35:30;;;;;;;25.43;3.80;;;;;;;;;;5018860;28;20199;-68
2023/01/30 14:38:18;;;;;;;33.07;4.10;;;;;;;;;;5032387;28;20412;-68
2023/01/30 14:41:04;;;;;;;31.07;5.47;;;;;;;;;;5013874;28;20190;-68
2023/01/30 14:43:41;;;;;;;25.10;3.67;;;;;;;;;;5004891;28;20221;-68
2023/01/30 14:46:16;;;;;;;26.87;3.93;;;;;;;;;;5016725;28;20658;-68
2023/01/30 14:48:53;;;;;;;29.50;4.30;;;;;;;;;;5014937;28;20662;-69
2023/01/30 14:51:42;;;;;;;25.20;3.87;;;;;;;;;;5020269;28;20288;-69
2023/01/30 14:54:10;;;;;;;32.57;4.27;;;;;;;;;;5018656;28;20195;-68
2023/01/30 14:57:04;;;;;;;26.80;4.67;;;;;;;;;;5014201;28;20226;-68